KAXN/AXN METAR and TAF weather

Enter ICAO airport designator
Station Type Date Time Source
KAXN METAR 2018/10/16 14:53 UTC NOAA

KAXN 161453Z AUTO 31008KT 10SM CLR 07/M01 A3004 RMK AO2 SLP183 T00721006 51028


Station Type Date Time Source
KAXN Decoded METAR 2018/10/16 14:53 UTC NOAA

CHANDLER FIELD, MN, United States (KAXN) 45-52N 095-24W 433M
Oct 16, 2018 - 10:53 AM EDT / 2018.10.16 1453 UTC
Wind: from the NW (310 degrees) at 9 MPH (8 KT):0
Visibility: 10 mile(s):0
Sky conditions: clear
Temperature: 45.0 F (7.2 C)
Dew Point: 30.9 F (-0.6 C)
Relative Humidity: 57%
Pressure (altimeter): 30.04 in. Hg (1017 hPa)
Pressure tendency: 0.08 inches (2.8 hPa) higher than three hours ago
ob: KAXN 161453Z AUTO 31008KT 10SM CLR 07/M01 A3004 RMK AO2 SLP183 T00721006 51028
cycle: 15

Station Type Date Time Source
KAXN TAF 2018/10/16 12:22 UTC NOAA

TAF KAXN 161120Z 1612/1712 28013KT P6SM SCT250
FM161500 31016G27KT P6SM SCT025 BKN035
FM170000 32010KT P6SM BKN050
FM170600 30008KT P6SM SKC


Example: see airport list